sensor_id;sensor_type;location;lat;lon;timestamp;P1;durP1;ratioP1;P2;durP2;ratioP2
60430;SDS011;46285;45.122;20.726;2023-07-13T00:05:36;16.60;;;7.78;;
60430;SDS011;46285;45.122;20.726;2023-07-13T00:15:37;17.38;;;7.68;;
60430;SDS011;46285;45.122;20.726;2023-07-13T00:25:38;16.02;;;7.95;;
60430;SDS011;46285;45.122;20.726;2023-07-13T00:35:39;19.23;;;8.43;;
60430;SDS011;46285;45.122;20.726;2023-07-13T00:55:46;14.95;;;8.27;;
60430;SDS011;46285;45.122;20.726;2023-07-13T01:05:50;17.80;;;9.30;;
60430;SDS011;46285;45.122;20.726;2023-07-13T01:15:52;15.45;;;8.48;;
60430;SDS011;46285;45.122;20.726;2023-07-13T01:25:53;14.93;;;8.82;;
60430;SDS011;46285;45.122;20.726;2023-07-13T01:35:54;12.80;;;8.35;;
60430;SDS011;46285;45.122;20.726;2023-07-13T01:45:56;16.33;;;9.13;;
60430;SDS011;46285;45.122;20.726;2023-07-13T01:55:58;18.23;;;9.18;;
60430;SDS011;46285;45.122;20.726;2023-07-13T02:05:59;18.88;;;10.73;;
60430;SDS011;46285;45.122;20.726;2023-07-13T02:16:00;18.60;;;9.73;;
60430;SDS011;46285;45.122;20.726;2023-07-13T02:26:02;18.92;;;10.45;;
60430;SDS011;46285;45.122;20.726;2023-07-13T02:36:04;17.55;;;11.10;;
60430;SDS011;46285;45.122;20.726;2023-07-13T02:46:05;30.80;;;14.40;;
60430;SDS011;46285;45.122;20.726;2023-07-13T02:56:07;22.00;;;12.43;;
60430;SDS011;46285;45.122;20.726;2023-07-13T03:06:08;22.90;;;13.30;;
60430;SDS011;46285;45.122;20.726;2023-07-13T03:16:16;18.25;;;11.85;;
60430;SDS011;46285;45.122;20.726;2023-07-13T03:26:20;21.05;;;13.35;;
60430;SDS011;46285;45.122;20.726;2023-07-13T03:36:25;20.67;;;11.75;;
60430;SDS011;46285;45.122;20.726;2023-07-13T03:46:29;27.75;;;13.15;;
60430;SDS011;46285;45.122;20.726;2023-07-13T03:56:31;16.80;;;11.02;;
60430;SDS011;46285;45.122;20.726;2023-07-13T04:06:32;17.80;;;11.98;;
60430;SDS011;46285;45.122;20.726;2023-07-13T04:16:33;18.75;;;11.70;;
60430;SDS011;46285;45.122;20.726;2023-07-13T04:26:34;23.35;;;13.45;;
60430;SDS011;46285;45.122;20.726;2023-07-13T04:36:35;22.60;;;12.77;;
60430;SDS011;46285;45.122;20.726;2023-07-13T04:46:38;13.73;;;10.95;;
60430;SDS011;46285;45.122;20.726;2023-07-13T04:56:39;20.57;;;12.07;;
60430;SDS011;46285;45.122;20.726;2023-07-13T05:06:40;23.17;;;13.65;;
60430;SDS011;46285;45.122;20.726;2023-07-13T05:16:41;18.38;;;12.70;;
60430;SDS011;46285;45.122;20.726;2023-07-13T05:26:43;23.70;;;13.43;;
60430;SDS011;46285;45.122;20.726;2023-07-13T05:36:44;17.50;;;13.90;;
60430;SDS011;46285;45.122;20.726;2023-07-13T05:46:45;19.30;;;13.90;;
60430;SDS011;46285;45.122;20.726;2023-07-13T06:06:48;21.02;;;11.40;;
60430;SDS011;46285;45.122;20.726;2023-07-13T06:16:50;18.95;;;10.23;;
60430;SDS011;46285;45.122;20.726;2023-07-13T06:26:55;14.30;;;10.15;;
60430;SDS011;46285;45.122;20.726;2023-07-13T06:36:57;19.13;;;10.68;;
60430;SDS011;46285;45.122;20.726;2023-07-13T06:46:59;27.38;;;12.88;;
60430;SDS011;46285;45.122;20.726;2023-07-13T06:57:00;18.17;;;12.68;;
60430;SDS011;46285;45.122;20.726;2023-07-13T07:07:01;20.23;;;12.95;;
60430;SDS011;46285;45.122;20.726;2023-07-13T07:17:02;27.17;;;14.15;;
60430;SDS011;46285;45.122;20.726;2023-07-13T07:27:04;20.00;;;12.38;;
60430;SDS011;46285;45.122;20.726;2023-07-13T07:37:05;17.90;;;11.05;;
60430;SDS011;46285;45.122;20.726;2023-07-13T07:47:07;22.52;;;10.30;;
60430;SDS011;46285;45.122;20.726;2023-07-13T07:57:08;15.63;;;9.15;;
60430;SDS011;46285;45.122;20.726;2023-07-13T08:07:09;17.30;;;10.45;;
60430;SDS011;46285;45.122;20.726;2023-07-13T08:17:10;21.40;;;9.75;;
60430;SDS011;46285;45.122;20.726;2023-07-13T08:27:12;19.90;;;9.30;;
60430;SDS011;46285;45.122;20.726;2023-07-13T08:37:13;18.40;;;7.55;;
60430;SDS011;46285;45.122;20.726;2023-07-13T08:47:14;20.83;;;7.13;;
60430;SDS011;46285;45.122;20.726;2023-07-13T08:57:19;13.82;;;7.32;;
60430;SDS011;46285;45.122;20.726;2023-07-13T09:17:49;17.93;;;7.83;;
60430;SDS011;46285;45.122;20.726;2023-07-13T09:27:52;22.58;;;7.78;;
60430;SDS011;46285;45.122;20.726;2023-07-13T09:37:59;17.02;;;8.43;;
60430;SDS011;46285;45.122;20.726;2023-07-13T09:48:05;17.17;;;8.23;;
60430;SDS011;46285;45.122;20.726;2023-07-13T09:58:15;19.88;;;8.63;;
60430;SDS011;46285;45.122;20.726;2023-07-13T10:08:21;22.23;;;7.80;;
60430;SDS011;46285;45.122;20.726;2023-07-13T10:18:23;18.88;;;8.70;;
60430;SDS011;46285;45.122;20.726;2023-07-13T10:28:27;18.88;;;9.18;;
60430;SDS011;46285;45.122;20.726;2023-07-13T10:38:29;23.50;;;9.82;;
60430;SDS011;46285;45.122;20.726;2023-07-13T10:48:30;19.88;;;8.57;;
60430;SDS011;46285;45.122;20.726;2023-07-13T11:08:34;17.35;;;8.25;;
60430;SDS011;46285;45.122;20.726;2023-07-13T11:18:35;14.68;;;7.70;;
60430;SDS011;46285;45.122;20.726;2023-07-13T11:28:37;15.10;;;7.70;;
60430;SDS011;46285;45.122;20.726;2023-07-13T11:38:39;14.18;;;6.40;;
60430;SDS011;46285;45.122;20.726;2023-07-13T11:48:41;16.17;;;7.10;;
60430;SDS011;46285;45.122;20.726;2023-07-13T11:58:43;18.88;;;8.65;;
60430;SDS011;46285;45.122;20.726;2023-07-13T12:08:44;14.32;;;7.45;;
60430;SDS011;46285;45.122;20.726;2023-07-13T12:18:46;14.63;;;6.75;;
60430;SDS011;46285;45.122;20.726;2023-07-13T12:28:56;16.08;;;6.43;;
60430;SDS011;46285;45.122;20.726;2023-07-13T12:38:59;18.02;;;7.40;;
60430;SDS011;46285;45.122;20.726;2023-07-13T12:49:01;14.43;;;6.50;;
60430;SDS011;46285;45.122;20.726;2023-07-13T12:59:08;14.93;;;6.30;;
60430;SDS011;46285;45.122;20.726;2023-07-13T13:09:13;13.75;;;7.25;;
60430;SDS011;46285;45.122;20.726;2023-07-13T13:19:16;13.55;;;6.95;;
60430;SDS011;46285;45.122;20.726;2023-07-13T13:29:23;14.98;;;6.75;;
60430;SDS011;46285;45.122;20.726;2023-07-13T13:39:25;16.38;;;6.68;;
60430;SDS011;46285;45.122;20.726;2023-07-13T13:49:29;10.32;;;6.78;;
60430;SDS011;46285;45.122;20.726;2023-07-13T13:59:30;14.85;;;6.60;;
60430;SDS011;46285;45.122;20.726;2023-07-13T14:23:49;14.85;;;6.20;;
60430;SDS011;46285;45.122;20.726;2023-07-13T14:33:51;15.10;;;6.47;;
60430;SDS011;46285;45.122;20.726;2023-07-13T14:43:52;12.82;;;6.45;;
60430;SDS011;46285;45.122;20.726;2023-07-13T14:53:53;13.77;;;6.53;;
60430;SDS011;46285;45.122;20.726;2023-07-13T15:03:54;21.63;;;6.15;;
60430;SDS011;46285;45.122;20.726;2023-07-13T15:13:59;15.88;;;6.75;;
60430;SDS011;46285;45.122;20.726;2023-07-13T15:24:00;15.10;;;5.78;;
60430;SDS011;46285;45.122;20.726;2023-07-13T15:34:03;20.35;;;6.50;;
60430;SDS011;46285;45.122;20.726;2023-07-13T15:44:07;18.67;;;6.13;;
60430;SDS011;46285;45.122;20.726;2023-07-13T15:54:14;16.73;;;6.32;;
60430;SDS011;46285;45.122;20.726;2023-07-13T16:04:19;13.13;;;6.20;;
60430;SDS011;46285;45.122;20.726;2023-07-13T16:14:20;18.85;;;6.32;;
60430;SDS011;46285;45.122;20.726;2023-07-13T16:24:22;20.20;;;6.80;;
60430;SDS011;46285;45.122;20.726;2023-07-13T16:34:27;16.40;;;6.47;;
60430;SDS011;46285;45.122;20.726;2023-07-13T16:44:28;19.27;;;7.00;;
60430;SDS011;46285;45.122;20.726;2023-07-13T16:54:34;20.85;;;6.55;;
60430;SDS011;46285;45.122;20.726;2023-07-13T17:04:36;15.93;;;6.10;;
60430;SDS011;46285;45.122;20.726;2023-07-13T17:14:37;30.05;;;6.70;;
60430;SDS011;46285;45.122;20.726;2023-07-13T17:24:38;19.33;;;6.65;;
60430;SDS011;46285;45.122;20.726;2023-07-13T17:34:39;24.80;;;6.43;;
60430;SDS011;46285;45.122;20.726;2023-07-13T17:44:40;23.13;;;5.82;;
60430;SDS011;46285;45.122;20.726;2023-07-13T17:54:42;15.45;;;4.45;;
60430;SDS011;46285;45.122;20.726;2023-07-13T18:04:43;15.85;;;3.63;;
60430;SDS011;46285;45.122;20.726;2023-07-13T18:14:44;17.98;;;4.38;;
60430;SDS011;46285;45.122;20.726;2023-07-13T18:24:45;15.30;;;3.67;;
60430;SDS011;46285;45.122;20.726;2023-07-13T18:34:48;15.90;;;3.55;;
60430;SDS011;46285;45.122;20.726;2023-07-13T18:44:50;13.68;;;3.75;;
60430;SDS011;46285;45.122;20.726;2023-07-13T18:54:52;11.53;;;3.73;;
60430;SDS011;46285;45.122;20.726;2023-07-13T19:04:57;12.20;;;3.17;;
60430;SDS011;46285;45.122;20.726;2023-07-13T19:15:04;12.60;;;4.28;;
60430;SDS011;46285;45.122;20.726;2023-07-13T19:25:23;16.98;;;4.53;;
60430;SDS011;46285;45.122;20.726;2023-07-13T19:35:26;21.75;;;4.90;;
60430;SDS011;46285;45.122;20.726;2023-07-13T19:45:28;16.35;;;4.15;;
60430;SDS011;46285;45.122;20.726;2023-07-13T19:55:29;17.20;;;5.97;;
60430;SDS011;46285;45.122;20.726;2023-07-13T20:05:33;11.10;;;4.40;;
60430;SDS011;46285;45.122;20.726;2023-07-13T20:15:37;11.05;;;4.88;;
60430;SDS011;46285;45.122;20.726;2023-07-13T20:25:40;14.30;;;5.65;;
60430;SDS011;46285;45.122;20.726;2023-07-13T20:35:41;18.52;;;5.30;;
60430;SDS011;46285;45.122;20.726;2023-07-13T20:45:43;15.05;;;6.90;;
60430;SDS011;46285;45.122;20.726;2023-07-13T20:55:44;14.18;;;5.45;;
60430;SDS011;46285;45.122;20.726;2023-07-13T21:05:45;17.38;;;6.47;;
60430;SDS011;46285;45.122;20.726;2023-07-13T21:15:46;19.85;;;5.85;;
60430;SDS011;46285;45.122;20.726;2023-07-13T21:25:47;14.85;;;6.85;;
60430;SDS011;46285;45.122;20.726;2023-07-13T21:35:49;17.88;;;6.18;;
60430;SDS011;46285;45.122;20.726;2023-07-13T21:45:52;15.13;;;5.65;;
60430;SDS011;46285;45.122;20.726;2023-07-13T21:55:55;17.80;;;5.90;;
60430;SDS011;46285;45.122;20.726;2023-07-13T22:05:57;12.33;;;6.43;;
60430;SDS011;46285;45.122;20.726;2023-07-13T22:15:58;18.60;;;7.93;;
60430;SDS011;46285;45.122;20.726;2023-07-13T22:25:59;14.27;;;6.00;;
60430;SDS011;46285;45.122;20.726;2023-07-13T22:36:00;10.25;;;5.65;;
60430;SDS011;46285;45.122;20.726;2023-07-13T22:46:02;13.88;;;6.43;;
60430;SDS011;46285;45.122;20.726;2023-07-13T22:56:04;13.88;;;5.75;;
60430;SDS011;46285;45.122;20.726;2023-07-13T23:06:05;15.93;;;6.28;;
60430;SDS011;46285;45.122;20.726;2023-07-13T23:16:09;9.60;;;4.03;;
60430;SDS011;46285;45.122;20.726;2023-07-13T23:33:21;11.32;;;4.90;;
60430;SDS011;46285;45.122;20.726;2023-07-13T23:43:23;9.52;;;4.28;;
60430;SDS011;46285;45.122;20.726;2023-07-13T23:53:24;6.75;;;2.25;;
